Terminal Aerodrome Forecast
Issued by NWS

Home | Current Version | Previous Version | Text Only | Print | Product List | Glossary On
Versions: 1 2 3 4 5 6 7 8 9 10 11 12 13 14 15 16 17 18 19
139
FTUS43 KFGF 091138
TAFDVL
TAF
KDVL 091138Z 0912/1012 03005KT P6SM OVC060
     FM100200 VRB06KT P6SM BKN025
     FM101100 12008KT P6SM -SN OVC025=

USA.gov is the U.S. government's official web portal to all federal, state and local government web resources and services.